Track Цыденов Александр

Time Latitude Longitude Accuracy (66% radius in meters) Altitude (meters) Speed (km/hour) Bearing (degrees) Battery (%) GPS flag
04:14:17 51.899861 107.663302 12.135999679565 656 2.1500000953674 207.10000610352 38 1 delete
04:14:15 51.899898 107.663342 12.135999679565 656 2.2400000095367 218.19999694824 38 1 delete
04:14:11 51.899936 107.663432 13.65299987793 657 1.7699999809265 249.89999389648 38 1 delete
04:14:06 51.899958 107.663588 15.170000076294 653 0.91000002622604 229.5 38 1 delete
04:14:05 51.899960 107.663608 15.170000076294 652 0.68999999761581 246.69999694824 38 1 delete
04:13:58 51.899988 107.663739 13.65299987793 646 0.58999997377396 261.70001220703 38 1 delete
04:13:55 51.899992 107.663814 10.618999481201 648 1.789999961853 292.20001220703 38 1 delete
04:13:52 51.899979 107.663887 10.618999481201 649 1.1299999952316 267.70001220703 38 1 delete
04:13:44 51.900001 107.663978 13.65299987793 651 0 0 38 1 delete
04:13:34 51.899997 107.663996 13.65299987793 650 0 0 38 1 delete
04:13:30 51.899988 107.664033 13.65299987793 651 0.69999998807907 305.20001220703 38 1 delete
04:13:23 51.900017 107.664159 10.618999481201 653 0.31000000238419 295.29998779297 38 1 delete
04:13:22 51.900021 107.664176 10.618999481201 652 0.80000001192093 296.79998779297 38 1 delete
04:13:13 51.900040 107.664320 10.618999481201 653 0.25 304.20001220703 38 1 delete
04:13:12 51.900040 107.664336 10.618999481201 654 1.4299999475479 287.29998779297 38 1 delete
04:13:06 51.900056 107.664499 9.1019992828369 657 1.6599999666214 330.60000610352 38 1 delete
04:13:03 51.900024 107.664549 9.1019992828369 657 1.9700000286102 289 38 1 delete
04:12:52 51.900010 107.664641 9.1019992828369 656 0.93999999761581 261.5 38 1 delete
04:12:42 51.900036 107.664788 9.1019992828369 664 0.62999999523163 261 38 1 delete
04:12:31 51.900055 107.664916 12.135999679565 656 1.1499999761581 286.89999389648 38 1 delete
04:12:29 51.900056 107.664942 15.170000076294 658 0.43999999761581 260 38 1 delete
04:12:21 51.900050 107.665034 10.618999481201 663 0 0 38 1 delete
04:12:12 51.900037 107.665096 9.1019992828369 661 0.87000000476837 241.39999389648 38 1 delete
04:12:11 51.900044 107.665111 9.1019992828369 661 0.8299999833107 266.79998779297 38 1 delete
04:12:06 51.900061 107.665249 7.585000038147 663 3.6199998855591 269.20001220703 38 1 delete
04:12:01 51.900084 107.665431 6.0679998397827 664 2.0699999332428 274.60000610352 38 1 delete
04:12:00 51.900083 107.665469 6.0679998397827 663 1.960000038147 279.79998779297 38 1 delete
04:11:55 51.900076 107.665605 7.585000038147 661 0.94999998807907 284.79998779297 38 1 delete
04:11:51 51.900068 107.665752 7.585000038147 661 2.6199998855591 268.10000610352 38 1 delete
04:11:50 51.900073 107.665794 7.585000038147 661 2.8599998950958 266 38 1 delete
04:11:47 51.900088 107.665930 6.0679998397827 662 3.5 265.39999389648 38 1 delete
04:11:43 51.900089 107.666117 9.1019992828369 664 3.1099998950958 287.29998779297 38 1 delete
04:11:40 51.900069 107.666243 7.585000038147 663 2.460000038147 258.60000610352 38 1 delete
04:11:39 51.900072 107.666282 10.618999481201 661 2.9200000762939 253.89999389648 38 1 delete
04:11:34 51.900088 107.666454 10.618999481201 667 2.4700000286102 275.29998779297 38 1 delete
04:11:29 51.900081 107.666614 10.618999481201 665 2.3099999427795 257.39999389648 38 1 delete
04:11:25 51.900118 107.666752 10.618999481201 667 2.3699998855591 252.30000305176 38 1 delete
04:11:20 51.900149 107.666923 10.618999481201 672 1.3200000524521 250.39999389648 38 1 delete
04:11:19 51.900155 107.666948 10.618999481201 674 1.6599999666214 250.10000610352 38 1 delete
04:11:15 51.900194 107.667073 12.135999679565 676 2.8499999046326 247.10000610352 38 1 delete
04:11:10 51.900236 107.667240 7.585000038147 677 2.9300000667572 253 38 1 delete
04:11:09 51.900244 107.667279 7.585000038147 679 2.2400000095367 253 38 1 delete
04:10:58 51.900264 107.667362 6.0679998397827 684 0 0 38 1 delete
04:10:48 51.900249 107.667374 6.0679998397827 680 0 0 38 1 delete
04:10:38 51.900198 107.667363 6.0679998397827 679 1.4800000190735 1.2000000476837 38 1 delete
04:10:30 51.900183 107.667370 7.585000038147 666 0 0 38 1 delete
04:10:27 51.900179 107.667372 7.585000038147 679 0 0 38 1 delete
04:10:17 51.900154 107.667369 7.585000038147 676 0.80000001192093 330.5 38 1 delete
04:10:09 51.900093 107.667376 6.0679998397827 681 0.51999998092651 338.60000610352 38 1 delete
04:10:07 51.900079 107.667367 6.0679998397827 681 0 0 38 1 delete